sensor_id;sensor_type;location;lat;lon;timestamp;temperature;humidity
34360;DHT22;20624;55.870;26.506;2022-11-03T00:01:49;7.80;99.90
34360;DHT22;20624;55.870;26.506;2022-11-03T00:06:52;7.70;99.90
34360;DHT22;20624;55.870;26.506;2022-11-03T00:09:22;7.80;99.90
34360;DHT22;20624;55.870;26.506;2022-11-03T00:11:52;7.80;99.90
34360;DHT22;20624;55.870;26.506;2022-11-03T00:14:20;7.80;99.90
34360;DHT22;20624;55.870;26.506;2022-11-03T00:16:48;7.80;99.90
34360;DHT22;20624;55.870;26.506;2022-11-03T00:24:12;7.90;99.90
34360;DHT22;20624;55.870;26.506;2022-11-03T00:26:42;7.80;99.90
34360;DHT22;20624;55.870;26.506;2022-11-03T00:29:11;7.80;99.90
34360;DHT22;20624;55.870;26.506;2022-11-03T00:34:08;7.80;99.90
34360;DHT22;20624;55.870;26.506;2022-11-03T00:36:41;7.00;99.90
34360;DHT22;20624;55.870;26.506;2022-11-03T00:39:09;8.60;99.90
34360;DHT22;20624;55.870;26.506;2022-11-03T00:41:37;7.90;99.90
34360;DHT22;20624;55.870;26.506;2022-11-03T00:44:04;7.90;99.90
34360;DHT22;20624;55.870;26.506;2022-11-03T00:46:32;7.90;99.90
34360;DHT22;20624;55.870;26.506;2022-11-03T00:49:02;7.90;99.90
34360;DHT22;20624;55.870;26.506;2022-11-03T00:51:30;7.90;99.90
34360;DHT22;20624;55.870;26.506;2022-11-03T00:54:00;7.90;99.90
34360;DHT22;20624;55.870;26.506;2022-11-03T00:56:36;7.90;99.90
34360;DHT22;20624;55.870;26.506;2022-11-03T00:59:05;7.90;99.90
34360;DHT22;20624;55.870;26.506;2022-11-03T01:01:35;8.00;99.90
34360;DHT22;20624;55.870;26.506;2022-11-03T01:04:10;7.90;99.90
34360;DHT22;20624;55.870;26.506;2022-11-03T01:06:58;8.00;99.90
34360;DHT22;20624;55.870;26.506;2022-11-03T01:12:06;8.00;99.90
34360;DHT22;20624;55.870;26.506;2022-11-03T01:14:44;8.00;99.90
34360;DHT22;20624;55.870;26.506;2022-11-03T01:17:17;7.60;99.90
34360;DHT22;20624;55.870;26.506;2022-11-03T01:19:46;7.90;99.90
34360;DHT22;20624;55.870;26.506;2022-11-03T01:22:14;8.60;99.90
34360;DHT22;20624;55.870;26.506;2022-11-03T01:24:43;8.00;99.90
34360;DHT22;20624;55.870;26.506;2022-11-03T01:27:14;7.90;99.90
34360;DHT22;20624;55.870;26.506;2022-11-03T01:29:44;8.00;99.90
34360;DHT22;20624;55.870;26.506;2022-11-03T01:32:12;8.00;99.90
34360;DHT22;20624;55.870;26.506;2022-11-03T01:37:07;8.00;99.90
34360;DHT22;20624;55.870;26.506;2022-11-03T01:39:37;8.10;99.90
34360;DHT22;20624;55.870;26.506;2022-11-03T01:42:08;7.50;99.90
34360;DHT22;20624;55.870;26.506;2022-11-03T01:44:41;8.10;99.90
34360;DHT22;20624;55.870;26.506;2022-11-03T01:49:59;8.20;99.90
34360;DHT22;20624;55.870;26.506;2022-11-03T01:52:33;9.00;99.90
34360;DHT22;20624;55.870;26.506;2022-11-03T01:55:13;8.20;99.90
34360;DHT22;20624;55.870;26.506;2022-11-03T01:57:49;9.00;99.90
34360;DHT22;20624;55.870;26.506;2022-11-03T02:02:49;8.30;99.90
34360;DHT22;20624;55.870;26.506;2022-11-03T02:05:17;8.30;99.90
34360;DHT22;20624;55.870;26.506;2022-11-03T02:07:52;8.70;99.90
34360;DHT22;20624;55.870;26.506;2022-11-03T02:10:23;8.40;99.90
34360;DHT22;20624;55.870;26.506;2022-11-03T02:12:51;8.40;99.90
34360;DHT22;20624;55.870;26.506;2022-11-03T02:15:19;8.40;99.90
34360;DHT22;20624;55.870;26.506;2022-11-03T02:17:51;8.50;99.90
34360;DHT22;20624;55.870;26.506;2022-11-03T02:20:28;8.50;99.90
34360;DHT22;20624;55.870;26.506;2022-11-03T02:28:11;8.60;99.90
34360;DHT22;20624;55.870;26.506;2022-11-03T02:33:56;8.70;99.90
34360;DHT22;20624;55.870;26.506;2022-11-03T02:39:29;8.70;99.90
34360;DHT22;20624;55.870;26.506;2022-11-03T02:42:01;8.70;99.90
34360;DHT22;20624;55.870;26.506;2022-11-03T02:44:32;8.70;99.90
34360;DHT22;20624;55.870;26.506;2022-11-03T02:47:05;7.90;99.90
34360;DHT22;20624;55.870;26.506;2022-11-03T02:49:44;8.80;99.90
34360;DHT22;20624;55.870;26.506;2022-11-03T02:52:43;8.00;99.90
34360;DHT22;20624;55.870;26.506;2022-11-03T03:01:02;9.10;99.90
34360;DHT22;20624;55.870;26.506;2022-11-03T03:03:37;8.90;99.90
34360;DHT22;20624;55.870;26.506;2022-11-03T03:06:20;8.70;99.90
34360;DHT22;20624;55.870;26.506;2022-11-03T03:08:55;8.90;99.90
34360;DHT22;20624;55.870;26.506;2022-11-03T03:11:24;8.90;99.90
34360;DHT22;20624;55.870;26.506;2022-11-03T03:14:11;8.90;99.90
34360;DHT22;20624;55.870;26.506;2022-11-03T03:22:00;9.00;99.90
34360;DHT22;20624;55.870;26.506;2022-11-03T03:24:58;9.00;99.90
34360;DHT22;20624;55.870;26.506;2022-11-03T03:27:29;9.00;99.90
34360;DHT22;20624;55.870;26.506;2022-11-03T03:30:05;9.10;99.90
34360;DHT22;20624;55.870;26.506;2022-11-03T03:32:40;8.00;99.90
34360;DHT22;20624;55.870;26.506;2022-11-03T03:35:14;9.20;99.90
34360;DHT22;20624;55.870;26.506;2022-11-03T03:37:46;9.20;99.90
34360;DHT22;20624;55.870;26.506;2022-11-03T03:40:24;9.20;99.90
34360;DHT22;20624;55.870;26.506;2022-11-03T03:42:53;9.20;99.90
34360;DHT22;20624;55.870;26.506;2022-11-03T03:45:21;9.20;99.90
34360;DHT22;20624;55.870;26.506;2022-11-03T03:50:25;9.00;99.90
34360;DHT22;20624;55.870;26.506;2022-11-03T03:53:11;9.30;99.90
34360;DHT22;20624;55.870;26.506;2022-11-03T03:55:41;9.30;99.90
34360;DHT22;20624;55.870;26.506;2022-11-03T03:58:13;9.30;99.90
34360;DHT22;20624;55.870;26.506;2022-11-03T04:03:20;9.40;99.90
34360;DHT22;20624;55.870;26.506;2022-11-03T04:05:47;9.30;99.90
34360;DHT22;20624;55.870;26.506;2022-11-03T04:08:18;9.40;99.90
34360;DHT22;20624;55.870;26.506;2022-11-03T04:10:45;9.40;99.90
34360;DHT22;20624;55.870;26.506;2022-11-03T04:13:32;9.60;99.90
34360;DHT22;20624;55.870;26.506;2022-11-03T04:16:37;9.40;99.90
34360;DHT22;20624;55.870;26.506;2022-11-03T04:19:26;9.40;99.90
34360;DHT22;20624;55.870;26.506;2022-11-03T04:22:14;9.40;99.90
34360;DHT22;20624;55.870;26.506;2022-11-03T04:24:49;9.40;99.90
34360;DHT22;20624;55.870;26.506;2022-11-03T04:27:32;9.40;99.90
34360;DHT22;20624;55.870;26.506;2022-11-03T04:30:20;9.40;99.90
34360;DHT22;20624;55.870;26.506;2022-11-03T04:32:51;9.40;99.90
34360;DHT22;20624;55.870;26.506;2022-11-03T04:35:27;9.20;99.90
34360;DHT22;20624;55.870;26.506;2022-11-03T04:38:00;9.40;99.90
34360;DHT22;20624;55.870;26.506;2022-11-03T04:40:29;9.40;99.90
34360;DHT22;20624;55.870;26.506;2022-11-03T04:42:57;9.40;99.90
34360;DHT22;20624;55.870;26.506;2022-11-03T04:45:28;9.30;99.90
34360;DHT22;20624;55.870;26.506;2022-11-03T04:47:59;9.40;99.90
34360;DHT22;20624;55.870;26.506;2022-11-03T04:50:27;9.30;99.90
34360;DHT22;20624;55.870;26.506;2022-11-03T04:52:56;9.20;99.90
34360;DHT22;20624;55.870;26.506;2022-11-03T04:55:24;9.30;99.90
34360;DHT22;20624;55.870;26.506;2022-11-03T04:58:05;9.40;99.90
34360;DHT22;20624;55.870;26.506;2022-11-03T05:00:36;9.40;99.90
34360;DHT22;20624;55.870;26.506;2022-11-03T05:03:13;9.40;99.90
34360;DHT22;20624;55.870;26.506;2022-11-03T05:05:42;9.40;99.90
34360;DHT22;20624;55.870;26.506;2022-11-03T05:08:12;9.50;99.90
34360;DHT22;20624;55.870;26.506;2022-11-03T05:10:45;9.40;99.90
34360;DHT22;20624;55.870;26.506;2022-11-03T05:13:24;9.40;99.90
34360;DHT22;20624;55.870;26.506;2022-11-03T05:16:01;9.50;99.90
34360;DHT22;20624;55.870;26.506;2022-11-03T05:21:02;9.40;99.90
34360;DHT22;20624;55.870;26.506;2022-11-03T05:23:31;9.40;99.90
34360;DHT22;20624;55.870;26.506;2022-11-03T05:26:53;9.50;99.90
34360;DHT22;20624;55.870;26.506;2022-11-03T05:31:37;9.50;99.90
34360;DHT22;20624;55.870;26.506;2022-11-03T05:36:51;9.50;99.90
34360;DHT22;20624;55.870;26.506;2022-11-03T05:44:36;9.40;99.90
34360;DHT22;20624;55.870;26.506;2022-11-03T05:47:16;9.50;99.90
34360;DHT22;20624;55.870;26.506;2022-11-03T05:49:45;9.00;99.90
34360;DHT22;20624;55.870;26.506;2022-11-03T05:54:48;9.50;99.90
34360;DHT22;20624;55.870;26.506;2022-11-03T05:59:46;9.90;99.90
34360;DHT22;20624;55.870;26.506;2022-11-03T06:07:25;9.60;99.90
34360;DHT22;20624;55.870;26.506;2022-11-03T06:09:53;9.60;99.90
34360;DHT22;20624;55.870;26.506;2022-11-03T06:12:22;9.60;99.90
34360;DHT22;20624;55.870;26.506;2022-11-03T06:14:51;9.30;99.90
34360;DHT22;20624;55.870;26.506;2022-11-03T06:17:23;8.10;99.90
34360;DHT22;20624;55.870;26.506;2022-11-03T06:19:57;9.60;99.90
34360;DHT22;20624;55.870;26.506;2022-11-03T06:22:35;9.60;99.90
34360;DHT22;20624;55.870;26.506;2022-11-03T06:30:28;9.60;99.90
34360;DHT22;20624;55.870;26.506;2022-11-03T06:32:59;9.70;99.90
34360;DHT22;20624;55.870;26.506;2022-11-03T06:35:27;9.70;99.90
34360;DHT22;20624;55.870;26.506;2022-11-03T06:37:56;9.70;99.90
34360;DHT22;20624;55.870;26.506;2022-11-03T06:40:33;9.70;99.90
34360;DHT22;20624;55.870;26.506;2022-11-03T06:43:13;9.70;99.90
34360;DHT22;20624;55.870;26.506;2022-11-03T06:45:56;9.70;99.90
34360;DHT22;20624;55.870;26.506;2022-11-03T06:48:26;8.50;99.90
34360;DHT22;20624;55.870;26.506;2022-11-03T06:50:57;8.70;99.90
34360;DHT22;20624;55.870;26.506;2022-11-03T06:53:28;9.80;99.90
34360;DHT22;20624;55.870;26.506;2022-11-03T06:58:31;8.70;99.90
34360;DHT22;20624;55.870;26.506;2022-11-03T07:01:08;9.80;99.90
34360;DHT22;20624;55.870;26.506;2022-11-03T07:06:21;8.90;99.90
34360;DHT22;20624;55.870;26.506;2022-11-03T07:08:57;9.90;99.90
34360;DHT22;20624;55.870;26.506;2022-11-03T07:11:28;9.20;99.90
34360;DHT22;20624;55.870;26.506;2022-11-03T07:14:02;9.90;99.90
34360;DHT22;20624;55.870;26.506;2022-11-03T07:19:42;10.00;99.90
34360;DHT22;20624;55.870;26.506;2022-11-03T07:22:44;10.00;99.90
34360;DHT22;20624;55.870;26.506;2022-11-03T07:25:08;9.90;99.90
34360;DHT22;20624;55.870;26.506;2022-11-03T07:35:27;10.10;99.90
34360;DHT22;20624;55.870;26.506;2022-11-03T07:38:17;10.20;99.90
34360;DHT22;20624;55.870;26.506;2022-11-03T07:45:52;10.20;99.90
34360;DHT22;20624;55.870;26.506;2022-11-03T07:48:43;10.20;99.90
34360;DHT22;20624;55.870;26.506;2022-11-03T07:51:25;10.30;99.90
34360;DHT22;20624;55.870;26.506;2022-11-03T07:53:57;10.20;99.90
34360;DHT22;20624;55.870;26.506;2022-11-03T07:57:19;10.30;99.90
34360;DHT22;20624;55.870;26.506;2022-11-03T07:59:48;10.30;99.90
34360;DHT22;20624;55.870;26.506;2022-11-03T08:02:55;10.20;99.90
34360;DHT22;20624;55.870;26.506;2022-11-03T08:12:48;11.50;99.90
34360;DHT22;20624;55.870;26.506;2022-11-03T08:22:40;10.30;99.90
34360;DHT22;20624;55.870;26.506;2022-11-03T08:25:28;10.40;99.90
34360;DHT22;20624;55.870;26.506;2022-11-03T08:27:55;10.30;99.90
34360;DHT22;20624;55.870;26.506;2022-11-03T08:30:23;10.20;99.90
34360;DHT22;20624;55.870;26.506;2022-11-03T08:37:46;10.30;99.90
34360;DHT22;20624;55.870;26.506;2022-11-03T08:42:41;10.10;99.90
34360;DHT22;20624;55.870;26.506;2022-11-03T08:45:09;10.50;99.90
34360;DHT22;20624;55.870;26.506;2022-11-03T08:55:00;12.10;99.90
34360;DHT22;20624;55.870;26.506;2022-11-03T08:57:28;10.50;99.90
34360;DHT22;20624;55.870;26.506;2022-11-03T09:15:04;11.10;99.90
34360;DHT22;20624;55.870;26.506;2022-11-03T09:17:33;12.50;99.90
34360;DHT22;20624;55.870;26.506;2022-11-03T09:20:05;11.30;99.90
34360;DHT22;20624;55.870;26.506;2022-11-03T09:27:31;12.20;99.90
34360;DHT22;20624;55.870;26.506;2022-11-03T09:37:36;11.20;99.90
34360;DHT22;20624;55.870;26.506;2022-11-03T09:57:28;11.20;99.90
34360;DHT22;20624;55.870;26.506;2022-11-03T10:02:30;11.40;99.90
34360;DHT22;20624;55.870;26.506;2022-11-03T10:04:58;11.40;99.90
34360;DHT22;20624;55.870;26.506;2022-11-03T10:10:02;11.30;99.90
34360;DHT22;20624;55.870;26.506;2022-11-03T10:12:34;12.30;99.90
34360;DHT22;20624;55.870;26.506;2022-11-03T10:15:02;11.10;99.90
34360;DHT22;20624;55.870;26.506;2022-11-03T10:17:30;10.70;99.90
34360;DHT22;20624;55.870;26.506;2022-11-03T10:22:25;12.60;99.90
34360;DHT22;20624;55.870;26.506;2022-11-03T10:25:25;10.30;99.90
34360;DHT22;20624;55.870;26.506;2022-11-03T10:28:22;11.10;99.90
34360;DHT22;20624;55.870;26.506;2022-11-03T10:33:51;10.90;99.90
34360;DHT22;20624;55.870;26.506;2022-11-03T10:38:47;10.90;99.90
34360;DHT22;20624;55.870;26.506;2022-11-03T10:54:20;10.90;99.90
34360;DHT22;20624;55.870;26.506;2022-11-03T10:59:25;11.10;99.90
34360;DHT22;20624;55.870;26.506;2022-11-03T11:01:58;10.90;99.90
34360;DHT22;20624;55.870;26.506;2022-11-03T11:04:26;10.90;99.90
34360;DHT22;20624;55.870;26.506;2022-11-03T11:06:54;11.10;99.90
34360;DHT22;20624;55.870;26.506;2022-11-03T11:09:23;11.00;99.90
34360;DHT22;20624;55.870;26.506;2022-11-03T11:17:40;11.00;99.90
34360;DHT22;20624;55.870;26.506;2022-11-03T11:20:29;11.00;99.90
34360;DHT22;20624;55.870;26.506;2022-11-03T11:28:32;11.00;99.90
34360;DHT22;20624;55.870;26.506;2022-11-03T11:30:59;11.10;99.90
34360;DHT22;20624;55.870;26.506;2022-11-03T11:33:29;10.10;99.90
34360;DHT22;20624;55.870;26.506;2022-11-03T11:47:49;11.20;99.90
34360;DHT22;20624;55.870;26.506;2022-11-03T11:50:21;11.60;99.90
34360;DHT22;20624;55.870;26.506;2022-11-03T11:52:58;11.20;99.90
34360;DHT22;20624;55.870;26.506;2022-11-03T11:55:34;11.10;99.90
34360;DHT22;20624;55.870;26.506;2022-11-03T11:58:17;11.10;99.90
34360;DHT22;20624;55.870;26.506;2022-11-03T12:03:31;11.70;99.90
34360;DHT22;20624;55.870;26.506;2022-11-03T12:06:01;11.20;99.90
34360;DHT22;20624;55.870;26.506;2022-11-03T12:11:01;10.90;99.90
34360;DHT22;20624;55.870;26.506;2022-11-03T12:13:44;10.80;99.90
34360;DHT22;20624;55.870;26.506;2022-11-03T12:21:43;10.80;99.90
34360;DHT22;20624;55.870;26.506;2022-11-03T12:26:59;10.70;99.90
34360;DHT22;20624;55.870;26.506;2022-11-03T12:29:29;10.90;99.90
34360;DHT22;20624;55.870;26.506;2022-11-03T12:54:11;10.50;99.90
34360;DHT22;20624;55.870;26.506;2022-11-03T12:59:10;10.50;99.90
34360;DHT22;20624;55.870;26.506;2022-11-03T13:26:34;11.60;99.90
34360;DHT22;20624;55.870;26.506;2022-11-03T13:33:58;10.10;99.90
34360;DHT22;20624;55.870;26.506;2022-11-03T13:36:28;10.00;99.90
34360;DHT22;20624;55.870;26.506;2022-11-03T13:41:28;10.60;99.90
34360;DHT22;20624;55.870;26.506;2022-11-03T13:51:40;10.00;99.90
34360;DHT22;20624;55.870;26.506;2022-11-03T13:54:11;9.90;99.90
34360;DHT22;20624;55.870;26.506;2022-11-03T14:02:14;8.30;99.90
34360;DHT22;20624;55.870;26.506;2022-11-03T14:07:43;9.60;99.90
34360;DHT22;20624;55.870;26.506;2022-11-03T14:10:19;9.80;99.90
34360;DHT22;20624;55.870;26.506;2022-11-03T14:12:47;9.80;99.90
34360;DHT22;20624;55.870;26.506;2022-11-03T14:17:46;9.70;99.90
34360;DHT22;20624;55.870;26.506;2022-11-03T14:27:38;11.50;99.90
34360;DHT22;20624;55.870;26.506;2022-11-03T14:30:11;9.70;99.90
34360;DHT22;20624;55.870;26.506;2022-11-03T14:32:43;7.60;99.90
34360;DHT22;20624;55.870;26.506;2022-11-03T14:43:01;9.60;99.90
34360;DHT22;20624;55.870;26.506;2022-11-03T14:47:58;11.10;99.90
34360;DHT22;20624;55.870;26.506;2022-11-03T15:00:21;10.20;99.90
34360;DHT22;20624;55.870;26.506;2022-11-03T15:05:27;9.50;99.90
34360;DHT22;20624;55.870;26.506;2022-11-03T15:08:14;9.40;99.90
34360;DHT22;20624;55.870;26.506;2022-11-03T15:13:10;10.00;99.90
34360;DHT22;20624;55.870;26.506;2022-11-03T15:15:40;9.40;99.90
34360;DHT22;20624;55.870;26.506;2022-11-03T15:20:39;10.80;99.90
34360;DHT22;20624;55.870;26.506;2022-11-03T15:25:57;8.60;99.90
34360;DHT22;20624;55.870;26.506;2022-11-03T15:28:25;9.30;99.90
34360;DHT22;20624;55.870;26.506;2022-11-03T15:30:53;9.30;99.90
34360;DHT22;20624;55.870;26.506;2022-11-03T15:33:20;10.80;99.90
34360;DHT22;20624;55.870;26.506;2022-11-03T15:40:45;9.30;99.90
34360;DHT22;20624;55.870;26.506;2022-11-03T15:43:16;9.30;99.90
34360;DHT22;20624;55.870;26.506;2022-11-03T15:48:11;9.70;99.90
34360;DHT22;20624;55.870;26.506;2022-11-03T15:53:06;7.30;99.90
34360;DHT22;20624;55.870;26.506;2022-11-03T15:55:34;9.20;99.90
34360;DHT22;20624;55.870;26.506;2022-11-03T16:05:27;9.50;99.90
34360;DHT22;20624;55.870;26.506;2022-11-03T16:07:54;9.00;99.90
34360;DHT22;20624;55.870;26.506;2022-11-03T16:10:22;10.20;99.90
34360;DHT22;20624;55.870;26.506;2022-11-03T16:12:52;9.00;99.90
34360;DHT22;20624;55.870;26.506;2022-11-03T16:15:19;11.00;99.90
34360;DHT22;20624;55.870;26.506;2022-11-03T16:22:42;8.90;99.90
34360;DHT22;20624;55.870;26.506;2022-11-03T16:27:44;10.40;99.90
34360;DHT22;20624;55.870;26.506;2022-11-03T16:30:12;7.70;99.90
34360;DHT22;20624;55.870;26.506;2022-11-03T16:35:11;9.20;99.90
34360;DHT22;20624;55.870;26.506;2022-11-03T16:37:38;8.70;99.90
34360;DHT22;20624;55.870;26.506;2022-11-03T16:40:07;10.40;99.90
34360;DHT22;20624;55.870;26.506;2022-11-03T16:42:44;10.60;99.90
34360;DHT22;20624;55.870;26.506;2022-11-03T16:45:19;8.00;99.90
34360;DHT22;20624;55.870;26.506;2022-11-03T16:52:47;8.60;99.90
34360;DHT22;20624;55.870;26.506;2022-11-03T16:55:16;7.00;99.90
34360;DHT22;20624;55.870;26.506;2022-11-03T16:57:44;7.50;99.90
34360;DHT22;20624;55.870;26.506;2022-11-03T17:02:41;7.30;99.90
34360;DHT22;20624;55.870;26.506;2022-11-03T17:05:09;8.70;99.90
34360;DHT22;20624;55.870;26.506;2022-11-03T17:10:05;9.80;99.90
34360;DHT22;20624;55.870;26.506;2022-11-03T17:12:32;6.80;99.90
34360;DHT22;20624;55.870;26.506;2022-11-03T17:15:00;6.70;99.90
34360;DHT22;20624;55.870;26.506;2022-11-03T17:17:27;8.70;99.90
34360;DHT22;20624;55.870;26.506;2022-11-03T17:19:55;7.80;99.90
34360;DHT22;20624;55.870;26.506;2022-11-03T17:22:23;8.70;99.90
34360;DHT22;20624;55.870;26.506;2022-11-03T17:27:24;6.70;99.90
34360;DHT22;20624;55.870;26.506;2022-11-03T17:29:56;6.60;99.90
34360;DHT22;20624;55.870;26.506;2022-11-03T17:32:30;8.70;99.90
34360;DHT22;20624;55.870;26.506;2022-11-03T17:35:04;8.70;99.90
34360;DHT22;20624;55.870;26.506;2022-11-03T17:40:04;10.10;99.90
34360;DHT22;20624;55.870;26.506;2022-11-03T17:45:00;10.70;99.90
34360;DHT22;20624;55.870;26.506;2022-11-03T17:52:27;8.80;99.90
34360;DHT22;20624;55.870;26.506;2022-11-03T17:54:58;10.80;99.90
34360;DHT22;20624;55.870;26.506;2022-11-03T17:59:58;10.40;99.90
34360;DHT22;20624;55.870;26.506;2022-11-03T18:02:30;8.80;99.90
34360;DHT22;20624;55.870;26.506;2022-11-03T18:05:11;8.80;99.90
34360;DHT22;20624;55.870;26.506;2022-11-03T18:07:50;8.70;99.90
34360;DHT22;20624;55.870;26.506;2022-11-03T18:12:47;8.70;99.90
34360;DHT22;20624;55.870;26.506;2022-11-03T18:15:34;8.80;99.90
34360;DHT22;20624;55.870;26.506;2022-11-03T18:18:11;10.30;99.90
34360;DHT22;20624;55.870;26.506;2022-11-03T18:20:44;8.80;99.90
34360;DHT22;20624;55.870;26.506;2022-11-03T18:23:23;9.60;99.90
34360;DHT22;20624;55.870;26.506;2022-11-03T18:25:51;8.80;99.90
34360;DHT22;20624;55.870;26.506;2022-11-03T18:28:19;8.80;99.90
34360;DHT22;20624;55.870;26.506;2022-11-03T18:30:48;8.80;99.90
34360;DHT22;20624;55.870;26.506;2022-11-03T18:33:24;8.80;99.90
34360;DHT22;20624;55.870;26.506;2022-11-03T18:35:53;8.80;99.90
34360;DHT22;20624;55.870;26.506;2022-11-03T18:38:21;8.90;99.90
34360;DHT22;20624;55.870;26.506;2022-11-03T18:40:50;8.80;99.90
34360;DHT22;20624;55.870;26.506;2022-11-03T18:43:22;8.80;99.90
34360;DHT22;20624;55.870;26.506;2022-11-03T18:48:18;8.70;99.90
34360;DHT22;20624;55.870;26.506;2022-11-03T18:50:51;6.30;99.90
34360;DHT22;20624;55.870;26.506;2022-11-03T18:53:22;8.70;99.90
34360;DHT22;20624;55.870;26.506;2022-11-03T18:58:20;8.60;99.90
34360;DHT22;20624;55.870;26.506;2022-11-03T19:00:48;8.60;99.90
34360;DHT22;20624;55.870;26.506;2022-11-03T19:05:45;8.20;99.90
34360;DHT22;20624;55.870;26.506;2022-11-03T19:08:22;10.60;99.90
34360;DHT22;20624;55.870;26.506;2022-11-03T19:10:52;9.50;99.90
34360;DHT22;20624;55.870;26.506;2022-11-03T19:13:29;10.50;99.90
34360;DHT22;20624;55.870;26.506;2022-11-03T19:16:00;8.50;99.90
34360;DHT22;20624;55.870;26.506;2022-11-03T19:18:30;8.40;99.90
34360;DHT22;20624;55.870;26.506;2022-11-03T19:21:01;8.90;99.90
34360;DHT22;20624;55.870;26.506;2022-11-03T19:23:29;10.10;99.90
34360;DHT22;20624;55.870;26.506;2022-11-03T19:25:57;7.20;99.90
34360;DHT22;20624;55.870;26.506;2022-11-03T19:28:27;8.50;99.90
34360;DHT22;20624;55.870;26.506;2022-11-03T19:30:56;8.70;99.90
34360;DHT22;20624;55.870;26.506;2022-11-03T19:33:26;8.50;99.90
34360;DHT22;20624;55.870;26.506;2022-11-03T19:43:38;10.70;99.90
34360;DHT22;20624;55.870;26.506;2022-11-03T19:46:07;8.50;99.90
34360;DHT22;20624;55.870;26.506;2022-11-03T19:51:06;10.50;99.90
34360;DHT22;20624;55.870;26.506;2022-11-03T19:53:33;10.50;99.90
34360;DHT22;20624;55.870;26.506;2022-11-03T19:56:01;8.50;99.90
34360;DHT22;20624;55.870;26.506;2022-11-03T19:58:30;8.80;99.90
34360;DHT22;20624;55.870;26.506;2022-11-03T20:00:57;7.80;99.90
34360;DHT22;20624;55.870;26.506;2022-11-03T20:03:34;6.10;99.90
34360;DHT22;20624;55.870;26.506;2022-11-03T20:06:01;8.50;99.90
34360;DHT22;20624;55.870;26.506;2022-11-03T20:08:30;8.50;99.90
34360;DHT22;20624;55.870;26.506;2022-11-03T20:10:59;8.50;99.90
34360;DHT22;20624;55.870;26.506;2022-11-03T20:13:31;8.90;99.90
34360;DHT22;20624;55.870;26.506;2022-11-03T20:16:00;8.50;99.90
34360;DHT22;20624;55.870;26.506;2022-11-03T20:18:27;8.50;99.90
34360;DHT22;20624;55.870;26.506;2022-11-03T20:20:55;8.50;99.90
34360;DHT22;20624;55.870;26.506;2022-11-03T20:23:29;8.50;99.90
34360;DHT22;20624;55.870;26.506;2022-11-03T20:25:57;8.50;99.90
34360;DHT22;20624;55.870;26.506;2022-11-03T20:28:28;8.60;99.90
34360;DHT22;20624;55.870;26.506;2022-11-03T20:33:29;10.30;99.90
34360;DHT22;20624;55.870;26.506;2022-11-03T20:35:57;10.80;99.90
34360;DHT22;20624;55.870;26.506;2022-11-03T20:38:25;8.60;99.90
34360;DHT22;20624;55.870;26.506;2022-11-03T20:41:01;8.60;99.90
34360;DHT22;20624;55.870;26.506;2022-11-03T20:43:30;9.60;99.90
34360;DHT22;20624;55.870;26.506;2022-11-03T20:45:58;7.40;99.90
34360;DHT22;20624;55.870;26.506;2022-11-03T20:48:26;7.20;99.90
34360;DHT22;20624;55.870;26.506;2022-11-03T20:50:54;6.80;99.90
34360;DHT22;20624;55.870;26.506;2022-11-03T20:53:23;6.70;99.90
34360;DHT22;20624;55.870;26.506;2022-11-03T20:55:51;9.30;99.90
34360;DHT22;20624;55.870;26.506;2022-11-03T20:58:19;7.70;99.90
34360;DHT22;20624;55.870;26.506;2022-11-03T21:03:18;8.60;99.90
34360;DHT22;20624;55.870;26.506;2022-11-03T21:08:33;9.80;99.90
34360;DHT22;20624;55.870;26.506;2022-11-03T21:11:01;7.00;99.90
34360;DHT22;20624;55.870;26.506;2022-11-03T21:14:12;7.30;99.90
34360;DHT22;20624;55.870;26.506;2022-11-03T21:16:40;10.00;99.90
34360;DHT22;20624;55.870;26.506;2022-11-03T21:22:18;8.70;99.90
34360;DHT22;20624;55.870;26.506;2022-11-03T21:27:42;10.40;99.90
34360;DHT22;20624;55.870;26.506;2022-11-03T21:30:13;10.50;99.90
34360;DHT22;20624;55.870;26.506;2022-11-03T21:35:18;8.70;99.90
34360;DHT22;20624;55.870;26.506;2022-11-03T21:42:40;10.40;99.90
34360;DHT22;20624;55.870;26.506;2022-11-03T21:45:26;10.30;99.90
34360;DHT22;20624;55.870;26.506;2022-11-03T21:50:42;8.70;99.90
34360;DHT22;20624;55.870;26.506;2022-11-03T22:00:36;8.40;99.90
34360;DHT22;20624;55.870;26.506;2022-11-03T22:03:05;8.70;99.90
34360;DHT22;20624;55.870;26.506;2022-11-03T22:12:57;9.90;99.90
34360;DHT22;20624;55.870;26.506;2022-11-03T22:26:15;8.70;99.90
34360;DHT22;20624;55.870;26.506;2022-11-03T22:37:05;7.70;99.90
34360;DHT22;20624;55.870;26.506;2022-11-03T22:52:51;7.40;99.90
34360;DHT22;20624;55.870;26.506;2022-11-03T22:55:18;7.70;99.90
34360;DHT22;20624;55.870;26.506;2022-11-03T23:00:16;8.80;99.90
34360;DHT22;20624;55.870;26.506;2022-11-03T23:10:08;10.40;99.90
34360;DHT22;20624;55.870;26.506;2022-11-03T23:15:06;10.20;99.90
34360;DHT22;20624;55.870;26.506;2022-11-03T23:20:38;7.10;99.90
34360;DHT22;20624;55.870;26.506;2022-11-03T23:23:25;10.30;99.90
34360;DHT22;20624;55.870;26.506;2022-11-03T23:36:11;8.70;99.90
34360;DHT22;20624;55.870;26.506;2022-11-03T23:41:16;10.10;99.90
34360;DHT22;20624;55.870;26.506;2022-11-03T23:43:45;7.30;99.90
34360;DHT22;20624;55.870;26.506;2022-11-03T23:48:59;7.80;99.90
34360;DHT22;20624;55.870;26.506;2022-11-03T23:51:28;8.20;99.90
34360;DHT22;20624;55.870;26.506;2022-11-03T23:53:56;8.60;99.90
34360;DHT22;20624;55.870;26.506;2022-11-03T23:56:26;8.60;99.90
34360;DHT22;20624;55.870;26.506;2022-11-03T23:59:14;7.20;99.90
